createdAt,value
2018-12-06T00:00:35.119Z,87.15
2018-12-06T00:01:35.121Z,86.96
2018-12-06T00:02:56.109Z,86.49
2018-12-06T00:03:35.096Z,86.87
2018-12-06T00:04:35.090Z,86.30
2018-12-06T00:05:35.090Z,85.82
2018-12-06T00:06:35.077Z,86.30
2018-12-06T00:07:35.108Z,86.20
2018-12-06T00:08:56.066Z,86.77
2018-12-06T00:09:35.075Z,86.20
2018-12-06T00:10:35.047Z,87.24
2018-12-06T00:11:35.036Z,87.05
2018-12-06T00:12:35.029Z,86.96
2018-12-06T00:13:35.024Z,86.58
2018-12-06T00:14:56.019Z,86.77
2018-12-06T00:15:35.008Z,86.96
2018-12-06T00:16:34.998Z,86.96
2018-12-06T00:17:35.012Z,87.05
2018-12-06T00:18:34.987Z,86.68
2018-12-06T00:19:34.978Z,87.05
2018-12-06T00:20:55.975Z,86.77
2018-12-06T00:21:34.965Z,86.39
2018-12-06T00:22:34.955Z,86.39
2018-12-06T00:23:34.948Z,86.11
2018-12-06T00:24:34.939Z,86.11
2018-12-06T00:25:34.932Z,85.35
2018-12-06T00:26:55.930Z,85.35
2018-12-06T00:27:34.914Z,85.25
2018-12-06T00:28:34.916Z,84.78
2018-12-06T00:29:34.903Z,85.06
2018-12-06T00:30:34.894Z,84.78
2018-12-06T00:31:34.888Z,85.06
2018-12-06T00:32:55.890Z,85.06
2018-12-06T00:33:34.887Z,85.35
2018-12-06T00:34:34.864Z,85.06
2018-12-06T00:35:34.856Z,84.78
2018-12-06T00:36:34.849Z,85.06
2018-12-06T00:37:34.841Z,84.97
2018-12-06T00:38:55.839Z,85.06
2018-12-06T00:39:34.827Z,85.25
2018-12-06T00:40:34.819Z,85.06
2018-12-06T00:41:34.813Z,84.74
2018-12-06T00:42:34.808Z,85.06
2018-12-06T00:43:34.817Z,84.83
2018-12-06T00:44:55.797Z,84.17
2018-12-06T00:45:34.781Z,84.26
2018-12-06T00:46:34.771Z,84.97
2018-12-06T00:47:34.759Z,84.21
2018-12-06T00:48:34.750Z,83.83
2018-12-06T00:49:34.751Z,83.69
2018-12-06T00:50:55.748Z,83.50
2018-12-06T00:51:34.748Z,83.69
2018-12-06T00:52:34.731Z,83.50
2018-12-06T00:53:34.736Z,83.40
2018-12-06T00:54:34.715Z,83.31
2018-12-06T00:55:34.705Z,83.12
2018-12-06T00:56:55.704Z,83.40
2018-12-06T00:57:34.707Z,83.22
2018-12-06T00:58:34.679Z,82.84
2018-12-06T00:59:34.676Z,83.12
2018-12-06T01:00:34.669Z,82.84
2018-12-06T01:01:34.664Z,82.27
2018-12-06T01:02:55.662Z,82.65
2018-12-06T01:03:34.650Z,81.51
2018-12-06T01:04:34.636Z,81.70
2018-12-06T01:05:34.632Z,81.13
2018-12-06T01:06:34.618Z,81.51
2018-12-06T01:07:34.614Z,81.32
2018-12-06T01:08:55.614Z,80.75
2018-12-06T01:09:34.599Z,81.04
2018-12-06T01:10:34.589Z,80.56
2018-12-06T01:11:34.580Z,80.37
2018-12-06T01:12:34.591Z,79.80
2018-12-06T01:13:34.590Z,79.90
2018-12-06T01:14:55.561Z,79.52
2018-12-06T01:15:34.555Z,79.71
2018-12-06T01:16:34.544Z,79.14
2018-12-06T01:17:34.555Z,79.90
2018-12-06T01:18:34.524Z,79.42
2018-12-06T01:19:34.531Z,79.80
2018-12-06T01:20:55.558Z,79.52
2018-12-06T01:21:34.601Z,79.23
2018-12-06T01:22:34.497Z,79.14
2018-12-06T01:23:34.496Z,79.14
2018-12-06T01:24:34.482Z,79.14
2018-12-06T01:25:34.473Z,79.33
2018-12-06T01:26:55.468Z,79.04
2018-12-06T01:27:34.458Z,79.42
2018-12-06T01:28:34.451Z,79.23
2018-12-06T01:29:34.469Z,79.33
2018-12-06T01:30:34.432Z,79.42
2018-12-06T01:31:34.429Z,79.23
2018-12-06T01:32:55.426Z,79.33
2018-12-06T01:33:34.428Z,79.33
2018-12-06T01:34:34.404Z,79.23
2018-12-06T01:35:34.392Z,79.33
2018-12-06T01:36:34.384Z,79.23
2018-12-06T01:37:34.394Z,79.33
2018-12-06T01:38:55.376Z,79.14
2018-12-06T01:39:34.361Z,79.52
2018-12-06T01:40:34.357Z,79.42
2018-12-06T01:41:34.354Z,79.23
2018-12-06T01:42:34.360Z,79.42
2018-12-06T01:43:34.331Z,79.23
2018-12-06T01:44:55.337Z,79.23
2018-12-06T01:45:34.324Z,79.42
2018-12-06T01:46:34.315Z,79.52
2018-12-06T01:47:34.303Z,79.33
2018-12-06T01:48:34.296Z,79.71
2018-12-06T01:49:34.291Z,79.71
2018-12-06T01:50:55.283Z,80.18
2018-12-06T01:51:34.280Z,80.08
2018-12-06T01:52:34.267Z,79.99
2018-12-06T01:53:34.264Z,79.99
2018-12-06T01:54:34.249Z,80.46
2018-12-06T01:55:34.246Z,80.27
2018-12-06T01:56:55.243Z,80.56
2018-12-06T01:57:34.226Z,80.37
2018-12-06T01:58:34.218Z,80.46
2018-12-06T01:59:34.215Z,80.56
2018-12-06T02:00:34.231Z,80.56
2018-12-06T02:01:34.209Z,80.56
2018-12-06T02:02:55.208Z,80.65
2018-12-06T02:03:34.175Z,80.56
2018-12-06T02:04:34.191Z,80.75
2018-12-06T02:05:34.170Z,80.69
2018-12-06T02:06:34.158Z,80.84
2018-12-06T02:07:34.152Z,80.94
2018-12-06T02:08:55.156Z,80.69
2018-12-06T02:09:34.140Z,80.79
2018-12-06T02:10:34.124Z,80.41
2018-12-06T02:11:34.127Z,81.07
2018-12-06T02:12:34.115Z,81.17
2018-12-06T02:13:34.113Z,81.23
2018-12-06T02:14:55.105Z,81.74
2018-12-06T02:15:34.090Z,81.60
2018-12-06T02:16:34.085Z,81.41
2018-12-06T02:17:34.077Z,81.70
2018-12-06T02:18:34.067Z,81.98
2018-12-06T02:19:34.059Z,81.79
2018-12-06T02:20:55.071Z,82.17
2018-12-06T02:21:34.050Z,81.41
2018-12-06T02:22:34.037Z,80.94
2018-12-06T02:23:34.033Z,81.70
2018-12-06T02:24:34.023Z,81.60
2018-12-06T02:25:34.041Z,81.41
2018-12-06T02:26:55.015Z,81.51
2018-12-06T02:27:34.025Z,81.60
2018-12-06T02:28:34.003Z,81.60
2018-12-06T02:29:33.985Z,81.41
2018-12-06T02:30:33.981Z,81.36
2018-12-06T02:31:33.971Z,81.98
2018-12-06T02:32:54.991Z,81.70
2018-12-06T02:33:33.959Z,81.51
2018-12-06T02:34:33.952Z,81.32
2018-12-06T02:35:33.937Z,81.32
2018-12-06T02:36:33.990Z,81.51
2018-12-06T02:37:33.926Z,81.60
2018-12-06T02:38:54.924Z,81.32
2018-12-06T02:39:33.909Z,81.13
2018-12-06T02:40:33.902Z,81.04
2018-12-06T02:41:33.891Z,80.94
2018-12-06T02:42:33.889Z,80.94
2018-12-06T02:43:33.878Z,81.04
2018-12-06T02:44:54.876Z,80.94
2018-12-06T02:45:33.863Z,81.04
2018-12-06T02:46:33.858Z,81.41
2018-12-06T02:47:33.848Z,81.41
2018-12-06T02:48:33.841Z,81.23
2018-12-06T02:49:33.835Z,81.70
2018-12-06T02:50:54.829Z,81.79
2018-12-06T02:51:33.821Z,81.79
2018-12-06T02:52:33.812Z,81.79
2018-12-06T02:53:33.813Z,81.51
2018-12-06T02:54:33.790Z,81.98
2018-12-06T02:55:33.790Z,81.60
2018-12-06T02:56:54.790Z,81.60
2018-12-06T02:57:33.771Z,81.60
2018-12-06T02:58:33.773Z,81.70
2018-12-06T02:59:33.757Z,81.41
2018-12-06T03:00:33.773Z,81.51
2018-12-06T03:01:33.741Z,82.36
2018-12-06T03:02:54.743Z,82.36
2018-12-06T03:03:33.732Z,81.70
2018-12-06T03:04:33.721Z,81.79
2018-12-06T03:05:35.659Z,82.65
2018-12-06T03:06:33.707Z,81.51
2018-12-06T03:07:33.697Z,81.60
2018-12-06T03:08:54.713Z,81.88
2018-12-06T03:09:33.683Z,81.79
2018-12-06T03:10:33.688Z,81.60
2018-12-06T03:11:33.662Z,82.08
2018-12-06T03:12:33.657Z,82.36
2018-12-06T03:13:33.649Z,82.27
2018-12-06T03:14:54.648Z,82.17
2018-12-06T03:15:33.632Z,81.98
2018-12-06T03:16:33.623Z,82.17
2018-12-06T03:17:33.616Z,82.27
2018-12-06T03:18:33.608Z,81.79
2018-12-06T03:19:33.623Z,81.60
2018-12-06T03:20:54.614Z,81.70
2018-12-06T03:21:33.593Z,81.70
2018-12-06T03:22:33.584Z,81.70
2018-12-06T03:23:33.569Z,81.79
2018-12-06T03:24:33.570Z,81.88
2018-12-06T03:25:33.551Z,81.98
2018-12-06T03:26:54.557Z,81.79
2018-12-06T03:27:33.538Z,81.88
2018-12-06T03:28:33.535Z,81.60
2018-12-06T03:29:33.525Z,81.51
2018-12-06T03:30:33.529Z,81.41
2018-12-06T03:31:33.513Z,81.79
2018-12-06T03:32:54.514Z,81.60
2018-12-06T03:33:33.495Z,82.17
2018-12-06T03:34:33.502Z,81.60
2018-12-06T03:35:33.477Z,82.36
2018-12-06T03:36:33.470Z,81.70
2018-12-06T03:37:33.464Z,81.98
2018-12-06T03:38:54.462Z,81.70
2018-12-06T03:39:33.456Z,81.70
2018-12-06T03:40:33.438Z,81.70
2018-12-06T03:41:33.448Z,82.36
2018-12-06T03:42:33.423Z,81.70
2018-12-06T03:43:33.430Z,81.88
2018-12-06T03:44:54.418Z,81.88
2018-12-06T03:45:33.403Z,81.51
2018-12-06T03:46:33.400Z,81.98
2018-12-06T03:47:33.391Z,81.41
2018-12-06T03:48:33.378Z,81.41
2018-12-06T03:49:33.375Z,81.79
2018-12-06T03:50:54.380Z,81.79
2018-12-06T03:51:33.361Z,81.79
2018-12-06T03:52:33.351Z,81.84
2018-12-06T03:53:33.344Z,81.74
2018-12-06T03:54:33.333Z,82.21
2018-12-06T03:55:33.326Z,82.31
2018-12-06T03:56:54.326Z,82.21
2018-12-06T03:57:33.318Z,82.03
2018-12-06T03:58:33.300Z,81.84
2018-12-06T03:59:33.293Z,81.93
2018-12-06T04:00:33.318Z,81.74
2018-12-06T04:01:33.283Z,82.69
2018-12-06T04:02:54.286Z,82.40
2018-12-06T04:03:33.288Z,81.74
2018-12-06T04:04:33.260Z,81.55
2018-12-06T04:05:33.251Z,82.50
2018-12-06T04:06:33.256Z,81.55
2018-12-06T04:07:33.234Z,81.74
2018-12-06T04:08:54.236Z,81.74
2018-12-06T04:09:33.221Z,82.59
2018-12-06T04:10:33.220Z,82.50
2018-12-06T04:11:33.202Z,81.55
2018-12-06T04:12:33.214Z,82.50
2018-12-06T04:13:33.187Z,82.31
2018-12-06T04:14:54.186Z,81.36
2018-12-06T04:15:33.171Z,81.55
2018-12-06T04:16:33.166Z,81.45
2018-12-06T04:17:33.159Z,82.40
2018-12-06T04:18:33.162Z,82.40
2018-12-06T04:19:33.148Z,82.55
2018-12-06T04:20:54.145Z,81.65
2018-12-06T04:21:33.129Z,81.84
2018-12-06T04:22:33.124Z,81.84
2018-12-06T04:23:33.119Z,81.84
2018-12-06T04:24:33.130Z,82.69
2018-12-06T04:25:33.105Z,81.84
2018-12-06T04:26:54.098Z,82.69
2018-12-06T04:27:33.081Z,82.69
2018-12-06T04:28:33.074Z,81.55
2018-12-06T04:29:33.067Z,82.50
2018-12-06T04:30:33.062Z,82.21
2018-12-06T04:31:33.052Z,81.74
2018-12-06T04:32:54.054Z,82.21
2018-12-06T04:33:33.038Z,81.93
2018-12-06T04:34:33.026Z,82.21
2018-12-06T04:35:33.020Z,82.21
2018-12-06T04:36:33.013Z,81.84
2018-12-06T04:37:33.004Z,81.65
2018-12-06T04:38:54.017Z,82.21
2018-12-06T04:39:32.993Z,82.03
2018-12-06T04:40:32.983Z,81.65
2018-12-06T04:41:32.973Z,81.74
2018-12-06T04:42:32.971Z,81.84
2018-12-06T04:43:32.960Z,81.74
2018-12-06T04:44:53.960Z,81.74
2018-12-06T04:45:32.947Z,81.84
2018-12-06T04:46:32.932Z,81.74
2018-12-06T04:47:32.956Z,81.74
2018-12-06T04:48:32.936Z,81.26
2018-12-06T04:49:32.941Z,81.84
2018-12-06T04:50:53.910Z,81.45
2018-12-06T04:51:32.959Z,81.84
2018-12-06T04:52:33.595Z,81.74
2018-12-06T04:53:32.934Z,82.03
2018-12-06T04:54:32.906Z,81.36
2018-12-06T04:55:32.907Z,81.45
2018-12-06T04:56:53.870Z,82.03
2018-12-06T04:57:32.917Z,81.84
2018-12-06T04:58:32.841Z,81.74
2018-12-06T04:59:32.831Z,81.60
2018-12-06T05:00:32.827Z,82.03
2018-12-06T05:01:32.819Z,81.93
2018-12-06T05:02:53.828Z,81.65
2018-12-06T05:03:32.804Z,82.03
2018-12-06T05:04:32.797Z,81.93
2018-12-06T05:05:32.789Z,81.74
2018-12-06T05:06:32.781Z,81.55
2018-12-06T05:07:32.794Z,81.74
2018-12-06T05:08:53.769Z,81.45
2018-12-06T05:09:32.758Z,81.36
2018-12-06T05:10:32.749Z,81.36
2018-12-06T05:11:32.750Z,81.07
2018-12-06T05:12:32.734Z,81.36
2018-12-06T05:13:32.727Z,81.55
2018-12-06T05:14:53.724Z,81.65
2018-12-06T05:15:32.709Z,81.36
2018-12-06T05:16:32.702Z,81.26
2018-12-06T05:17:32.696Z,81.26
2018-12-06T05:18:32.691Z,81.26
2018-12-06T05:19:32.802Z,81.45
2018-12-06T05:20:53.679Z,81.45
2018-12-06T05:21:32.786Z,81.55
2018-12-06T05:22:32.695Z,81.45
2018-12-06T05:23:33.580Z,81.55
2018-12-06T05:24:32.677Z,81.26
2018-12-06T05:25:32.630Z,81.55
2018-12-06T05:26:53.629Z,81.36
2018-12-06T05:27:32.621Z,81.45
2018-12-06T05:28:32.610Z,81.74
2018-12-06T05:29:32.602Z,81.65
2018-12-06T05:30:32.597Z,81.65
2018-12-06T05:31:32.592Z,81.65
2018-12-06T05:32:53.591Z,81.65
2018-12-06T05:33:32.575Z,81.45
2018-12-06T05:34:32.564Z,81.55
2018-12-06T05:35:32.604Z,81.55
2018-12-06T05:36:32.558Z,81.55
2018-12-06T05:37:32.540Z,81.55
2018-12-06T05:38:53.539Z,81.74
2018-12-06T05:39:33.607Z,81.84
2018-12-06T05:40:32.523Z,81.84
2018-12-06T05:41:32.514Z,81.93
2018-12-06T05:42:32.504Z,81.93
2018-12-06T05:43:32.497Z,80.98
2018-12-06T05:44:53.527Z,81.93
2018-12-06T05:45:32.482Z,82.03
2018-12-06T05:46:32.469Z,82.12
2018-12-06T05:47:32.465Z,81.55
2018-12-06T05:48:32.453Z,82.03
2018-12-06T05:49:32.448Z,82.03
2018-12-06T05:50:53.451Z,81.93
2018-12-06T05:51:32.435Z,82.03
2018-12-06T05:52:32.430Z,82.12
2018-12-06T05:53:32.435Z,82.03
2018-12-06T05:54:32.410Z,81.84
2018-12-06T05:55:32.404Z,81.93
2018-12-06T05:56:53.398Z,82.03
2018-12-06T05:57:32.385Z,81.55
2018-12-06T05:58:32.382Z,81.65
2018-12-06T05:59:32.398Z,81.84
2018-12-06T06:00:32.365Z,81.74
2018-12-06T06:01:32.392Z,81.55
2018-12-06T06:02:53.366Z,82.21
2018-12-06T06:03:32.381Z,81.55
2018-12-06T06:04:32.359Z,81.74
2018-12-06T06:05:32.328Z,81.07
2018-12-06T06:06:32.393Z,81.74
2018-12-06T06:07:32.324Z,81.65
2018-12-06T06:08:53.307Z,81.74
2018-12-06T06:09:32.295Z,81.84
2018-12-06T06:10:32.289Z,81.84
2018-12-06T06:11:32.288Z,81.55
2018-12-06T06:12:32.288Z,81.45
2018-12-06T06:13:32.265Z,81.65
2018-12-06T06:14:53.259Z,81.36
2018-12-06T06:15:32.250Z,81.36
2018-12-06T06:16:32.287Z,81.55
2018-12-06T06:17:32.233Z,81.55
2018-12-06T06:18:32.232Z,81.36
2018-12-06T06:19:32.216Z,81.26
2018-12-06T06:20:53.215Z,81.36
2018-12-06T06:21:32.203Z,81.45
2018-12-06T06:22:32.225Z,81.36
2018-12-06T06:23:32.194Z,81.45
2018-12-06T06:24:32.178Z,81.17
2018-12-06T06:25:32.177Z,81.36
2018-12-06T06:26:53.216Z,81.45
2018-12-06T06:27:32.159Z,81.17
2018-12-06T06:28:32.166Z,81.17
2018-12-06T06:29:32.144Z,81.07
2018-12-06T06:30:32.132Z,80.69
2018-12-06T06:31:32.131Z,80.79
2018-12-06T06:32:53.185Z,80.69
2018-12-06T06:33:32.116Z,80.51
2018-12-06T06:34:32.102Z,80.69
2018-12-06T06:35:32.168Z,80.88
2018-12-06T06:36:32.089Z,80.98
2018-12-06T06:37:32.081Z,80.79
2018-12-06T06:38:53.078Z,80.98
2018-12-06T06:39:32.086Z,80.88
2018-12-06T06:40:32.061Z,80.98
2018-12-06T06:41:32.052Z,80.88
2018-12-06T06:42:32.051Z,80.88
2018-12-06T06:43:32.055Z,80.79
2018-12-06T06:44:53.038Z,80.69
2018-12-06T06:49:54.380Z,80.60
2018-12-06T06:51:01.362Z,80.41
2018-12-06T06:52:45.900Z,80.22
2018-12-06T06:53:45.892Z,80.22
2018-12-06T06:54:45.890Z,79.94
2018-12-06T06:55:45.878Z,79.94
2018-12-06T06:56:45.874Z,79.74
2018-12-06T06:57:45.864Z,79.94
2018-12-06T06:58:45.857Z,80.03
2018-12-06T06:59:45.850Z,80.13
2018-12-06T07:00:45.850Z,79.84
2018-12-06T07:01:45.834Z,79.94
2018-12-06T07:02:45.828Z,80.03
2018-12-06T07:03:45.816Z,80.03
2018-12-06T07:04:45.819Z,80.03
2018-12-06T07:05:45.805Z,79.46
2018-12-06T07:06:45.801Z,80.22
2018-12-06T07:07:45.787Z,80.13
2018-12-06T07:08:45.785Z,80.22
2018-12-06T07:09:45.789Z,80.22
2018-12-06T07:10:47.298Z,80.22
2018-12-06T07:11:45.759Z,80.32
2018-12-06T07:12:45.752Z,79.94
2018-12-06T07:13:45.744Z,80.22
2018-12-06T07:14:45.736Z,79.94
2018-12-06T07:15:45.726Z,80.69
2018-12-06T07:16:45.722Z,80.26
2018-12-06T07:17:45.716Z,80.07
2018-12-06T07:18:45.709Z,80.13
2018-12-06T07:19:45.700Z,80.45
2018-12-06T07:20:45.726Z,80.45
2018-12-06T07:21:45.681Z,80.26
2018-12-06T07:22:45.669Z,80.35
2018-12-06T07:23:45.661Z,80.35
2018-12-06T07:24:45.663Z,80.83
2018-12-06T07:25:46.496Z,80.74
2018-12-06T07:26:45.705Z,81.02
2018-12-06T07:27:46.385Z,80.64
2018-12-06T07:28:45.633Z,80.74
2018-12-06T07:29:46.455Z,81.30
2018-12-06T07:30:45.621Z,81.21
2018-12-06T07:31:45.607Z,81.21
2018-12-06T07:32:45.603Z,81.02
2018-12-06T07:33:45.598Z,80.74
2018-12-06T07:34:45.594Z,81.12
2018-12-06T07:35:45.581Z,80.83
2018-12-06T07:36:45.571Z,81.02
2018-12-06T07:37:45.596Z,81.12
2018-12-06T07:38:45.567Z,81.21
2018-12-06T07:39:45.554Z,81.02
2018-12-06T07:40:48.041Z,81.21
2018-12-06T07:41:45.540Z,81.12
2018-12-06T07:42:45.537Z,81.02
2018-12-06T07:43:45.523Z,81.12
2018-12-06T07:44:45.518Z,80.93
2018-12-06T07:45:45.511Z,81.12
2018-12-06T07:46:45.492Z,80.83
2018-12-06T07:47:45.489Z,81.30
2018-12-06T07:48:45.485Z,81.02
2018-12-06T07:49:45.480Z,81.12
2018-12-06T07:50:45.477Z,81.21
2018-12-06T07:51:45.466Z,81.12
2018-12-06T07:52:45.459Z,81.12
2018-12-06T07:53:45.518Z,81.02
2018-12-06T07:54:45.445Z,81.02
2018-12-06T07:55:45.437Z,81.02
2018-12-06T07:56:45.431Z,80.83
2018-12-06T07:57:45.413Z,80.11
2018-12-06T07:58:45.446Z,80.45
2018-12-06T07:59:45.402Z,80.93
2018-12-06T08:00:45.402Z,80.35
2018-12-06T08:01:45.399Z,80.96
2018-12-06T08:02:45.391Z,80.49
2018-12-06T08:03:45.383Z,80.49
2018-12-06T08:04:45.368Z,80.58
2018-12-06T08:05:45.367Z,80.55
2018-12-06T08:06:45.359Z,80.64
2018-12-06T08:07:45.353Z,80.21
2018-12-06T08:08:45.346Z,80.96
2018-12-06T08:09:45.340Z,80.68
2018-12-06T08:10:45.334Z,80.58
2018-12-06T08:11:45.326Z,80.83
2018-12-06T08:12:45.322Z,80.87
2018-12-06T08:13:45.312Z,80.11
2018-12-06T08:14:45.306Z,80.21
2018-12-06T08:15:45.302Z,80.11
2018-12-06T08:16:45.295Z,80.02
2018-12-06T08:17:45.289Z,80.11
2018-12-06T08:18:45.280Z,80.21
2018-12-06T08:19:45.271Z,80.21
2018-12-06T08:20:45.267Z,79.83
2018-12-06T08:21:45.972Z,80.30
2018-12-06T08:22:45.258Z,80.30
2018-12-06T08:23:45.243Z,80.87
2018-12-06T08:24:45.243Z,80.11
2018-12-06T08:25:45.234Z,80.68
2018-12-06T08:26:45.226Z,80.11
2018-12-06T08:27:45.222Z,81.16
2018-12-06T08:28:45.216Z,80.96
2018-12-06T08:29:45.207Z,81.35
2018-12-06T08:30:45.200Z,81.54
2018-12-06T08:31:46.373Z,81.44
2018-12-06T08:32:45.186Z,82.39
2018-12-06T08:33:45.180Z,82.68
2018-12-06T08:34:45.172Z,82.01
2018-12-06T08:35:45.169Z,83.15
2018-12-06T08:36:45.162Z,83.06
2018-12-06T08:37:45.153Z,83.72
2018-12-06T08:38:45.213Z,83.91
2018-12-06T08:39:45.144Z,84.20
2018-12-06T08:40:45.136Z,84.48
2018-12-06T08:41:45.130Z,84.86
2018-12-06T08:42:45.885Z,85.53
2018-12-06T08:43:45.119Z,86.10
2018-12-06T08:44:45.106Z,86.10
2018-12-06T08:45:45.119Z,85.72
2018-12-06T08:46:45.099Z,86.86
2018-12-06T08:47:45.093Z,87.14
2018-12-06T08:48:45.087Z,87.24
2018-12-06T08:49:45.081Z,86.86
2018-12-06T08:50:45.079Z,87.52
2018-12-06T08:51:45.083Z,87.52
2018-12-06T08:52:45.065Z,87.90
2018-12-06T08:53:45.059Z,87.81
2018-12-06T08:54:45.051Z,88.00
2018-12-06T08:55:45.044Z,88.47
2018-12-06T08:56:45.037Z,88.38
2018-12-06T08:57:45.038Z,88.19
2018-12-06T08:58:45.029Z,89.04
2018-12-06T08:59:45.022Z,89.47
2018-12-06T09:00:45.015Z,89.66
2018-12-06T09:01:45.005Z,90.80
2018-12-06T09:02:45.003Z,91.47
2018-12-06T09:03:44.994Z,92.99
2018-12-06T09:04:44.996Z,93.65
2018-12-06T09:05:44.982Z,94.79
2018-12-06T09:06:44.976Z,94.79
2018-12-06T09:07:44.971Z,97.17
2018-12-06T09:08:44.963Z,97.74
2018-12-06T09:09:44.961Z,98.60
2018-12-06T09:10:51.362Z,99.74
2018-12-06T09:11:44.948Z,99.99
2018-12-06T09:12:44.941Z,99.99
2018-12-06T09:13:44.937Z,99.99
2018-12-06T09:14:44.940Z,99.99
2018-12-06T09:15:44.927Z,99.99
2018-12-06T09:16:44.923Z,99.99
2018-12-06T09:17:44.916Z,99.99
2018-12-06T09:18:44.912Z,99.99
2018-12-06T09:19:44.910Z,99.99
2018-12-06T09:20:44.903Z,99.99
2018-12-06T09:21:44.901Z,99.99
2018-12-06T09:22:44.887Z,99.99
2018-12-06T09:23:44.881Z,99.99
2018-12-06T09:24:44.877Z,99.99
2018-12-06T09:25:46.359Z,99.99
2018-12-06T09:26:44.867Z,99.99
2018-12-06T09:27:44.860Z,99.99
2018-12-06T09:28:44.859Z,99.99
2018-12-06T09:29:44.848Z,99.99
2018-12-06T09:30:44.845Z,99.99
2018-12-06T09:31:44.842Z,99.99
2018-12-06T09:32:44.834Z,99.99
2018-12-06T09:33:44.827Z,99.99
2018-12-06T09:34:44.829Z,99.99
2018-12-06T09:35:44.828Z,99.99
2018-12-06T09:36:45.425Z,99.99
2018-12-06T09:37:44.836Z,99.99
2018-12-06T09:38:44.814Z,99.99
2018-12-06T09:39:44.799Z,99.99
2018-12-06T09:40:44.790Z,99.99
2018-12-06T09:41:44.799Z,99.99
2018-12-06T09:42:44.781Z,99.99
2018-12-06T09:43:44.775Z,99.99
2018-12-06T09:44:44.770Z,99.99
2018-12-06T09:45:44.769Z,99.99
2018-12-06T09:46:44.758Z,99.99
2018-12-06T09:47:44.753Z,99.99
2018-12-06T09:48:44.749Z,99.99
2018-12-06T09:49:44.746Z,99.99
2018-12-06T09:50:44.738Z,99.99
2018-12-06T09:51:44.733Z,99.99
2018-12-06T09:52:44.725Z,99.99
2018-12-06T09:53:44.723Z,99.99
2018-12-06T09:54:44.717Z,99.99
2018-12-06T09:55:44.714Z,99.99
2018-12-06T09:56:44.710Z,99.99
2018-12-06T09:57:44.704Z,99.99
2018-12-06T09:58:44.705Z,99.99
2018-12-06T09:59:44.692Z,99.99
2018-12-06T10:00:44.686Z,99.99
2018-12-06T10:01:44.682Z,99.99
2018-12-06T10:02:44.678Z,99.99
2018-12-06T10:03:44.673Z,99.99
2018-12-06T10:04:44.669Z,99.99
2018-12-06T10:05:44.651Z,99.99
2018-12-06T10:06:44.660Z,99.99
2018-12-06T10:07:44.651Z,99.99
2018-12-06T10:08:44.648Z,99.99
2018-12-06T10:09:44.644Z,99.99
2018-12-06T10:10:44.640Z,99.99
2018-12-06T10:11:44.633Z,99.99
2018-12-06T10:12:44.638Z,99.99
2018-12-06T10:13:44.623Z,99.99
2018-12-06T10:14:44.617Z,99.99
2018-12-06T10:15:44.608Z,99.99
2018-12-06T10:16:44.611Z,99.99
2018-12-06T10:17:44.602Z,99.99
2018-12-06T10:18:44.597Z,99.99
2018-12-06T10:19:44.591Z,99.99
2018-12-06T10:20:44.586Z,99.99
2018-12-06T10:21:44.584Z,99.99
2018-12-06T10:22:44.576Z,99.99
2018-12-06T10:23:44.575Z,99.99
2018-12-06T10:24:44.563Z,99.99
2018-12-06T10:25:44.580Z,99.99
2018-12-06T10:26:44.556Z,99.99
2018-12-06T10:27:44.549Z,99.99
2018-12-06T10:28:44.547Z,99.99
2018-12-06T10:29:44.541Z,99.99
2018-12-06T10:30:44.536Z,99.99
2018-12-06T10:31:44.531Z,99.99
2018-12-06T10:32:44.578Z,99.99
2018-12-06T10:33:44.522Z,99.99
2018-12-06T10:34:45.442Z,99.99
2018-12-06T10:35:44.510Z,99.99
2018-12-06T10:36:44.511Z,99.99
2018-12-06T10:37:44.502Z,99.99
2018-12-06T10:38:44.519Z,99.99
2018-12-06T10:39:44.532Z,99.99
2018-12-06T10:40:44.489Z,99.99
2018-12-06T10:41:44.485Z,99.99
2018-12-06T10:42:44.496Z,99.99
2018-12-06T10:43:44.476Z,99.99
2018-12-06T10:44:44.471Z,99.99
2018-12-06T10:45:44.459Z,99.99
2018-12-06T10:46:44.463Z,99.99
2018-12-06T10:47:44.455Z,99.99
2018-12-06T10:48:44.453Z,99.99
2018-12-06T10:49:44.435Z,99.99
2018-12-06T10:50:44.443Z,99.99
2018-12-06T10:51:44.435Z,99.99
2018-12-06T10:52:44.433Z,99.99
2018-12-06T10:53:44.433Z,99.99
2018-12-06T10:54:44.429Z,99.99
2018-12-06T10:55:44.420Z,99.99
2018-12-06T10:56:44.411Z,99.99
2018-12-06T10:57:44.412Z,99.99
2018-12-06T10:58:44.405Z,99.99
2018-12-06T10:59:44.473Z,99.99
2018-12-06T11:00:44.399Z,99.99
2018-12-06T11:01:44.390Z,99.99
2018-12-06T11:02:44.386Z,99.99
2018-12-06T11:03:44.429Z,99.99
2018-12-06T11:04:44.374Z,99.99
2018-12-06T11:05:44.372Z,99.99
2018-12-06T11:06:44.368Z,99.99
2018-12-06T11:07:44.362Z,99.99
2018-12-06T11:08:44.356Z,99.99
2018-12-06T11:09:44.353Z,99.99
2018-12-06T11:10:44.354Z,99.99
2018-12-06T11:11:44.333Z,99.99
2018-12-06T11:12:44.336Z,99.99
2018-12-06T11:13:44.333Z,99.99
2018-12-06T11:14:44.326Z,99.99
2018-12-06T11:15:44.321Z,99.99
2018-12-06T11:16:44.308Z,99.99
2018-12-06T11:17:44.319Z,99.99
2018-12-06T11:18:44.305Z,99.99
2018-12-06T11:19:44.303Z,99.99
2018-12-06T11:20:44.295Z,99.99
2018-12-06T11:21:44.299Z,99.99
2018-12-06T11:22:44.286Z,99.99
2018-12-06T11:23:44.279Z,99.99
2018-12-06T11:24:44.276Z,99.99
2018-12-06T11:25:44.269Z,99.99
2018-12-06T11:26:44.278Z,99.99
2018-12-06T11:27:44.256Z,99.99
2018-12-06T11:28:44.260Z,99.99
2018-12-06T11:29:44.251Z,99.99
2018-12-06T11:30:44.242Z,99.99
2018-12-06T11:31:44.237Z,99.99
2018-12-06T11:32:44.232Z,99.99
2018-12-06T11:33:44.230Z,99.99
2018-12-06T11:34:44.223Z,99.99
2018-12-06T11:35:44.217Z,99.99
2018-12-06T11:36:44.218Z,99.99
2018-12-06T11:37:44.205Z,99.99
2018-12-06T11:38:44.202Z,99.99
2018-12-06T11:39:44.196Z,99.99
2018-12-06T11:40:44.190Z,99.99
2018-12-06T11:41:44.184Z,99.99
2018-12-06T11:42:44.182Z,99.99
2018-12-06T11:43:44.187Z,99.99
2018-12-06T11:44:44.170Z,99.99
2018-12-06T11:45:44.165Z,99.99
2018-12-06T11:46:44.154Z,99.99
2018-12-06T11:47:44.151Z,99.99
2018-12-06T11:48:44.148Z,99.99
2018-12-06T11:49:44.142Z,99.99
2018-12-06T11:50:44.135Z,99.99
2018-12-06T11:51:44.123Z,99.99
2018-12-06T11:52:44.123Z,99.99
2018-12-06T11:53:44.157Z,99.99
2018-12-06T11:55:44.109Z,99.99
2018-12-06T11:56:44.107Z,99.99
2018-12-06T11:57:44.101Z,99.99
2018-12-06T11:58:44.100Z,99.99
2018-12-06T11:59:44.141Z,99.99
2018-12-06T12:00:44.076Z,99.99
2018-12-06T12:02:09.900Z,99.99
2018-12-06T12:02:44.077Z,99.99
2018-12-06T12:03:44.065Z,99.99
2018-12-06T12:04:44.112Z,99.99
2018-12-06T12:05:44.055Z,99.99
2018-12-06T12:06:44.047Z,99.99
2018-12-06T12:08:05.046Z,99.99
2018-12-06T12:08:44.033Z,99.99
2018-12-06T12:09:44.035Z,99.99
2018-12-06T12:10:44.031Z,99.99
2018-12-06T12:11:44.021Z,99.99
2018-12-06T12:12:44.012Z,99.99
2018-12-06T12:14:05.019Z,99.99
2018-12-06T12:14:44.001Z,99.99
2018-12-06T12:15:43.994Z,99.99
2018-12-06T12:16:43.989Z,99.99
2018-12-06T12:17:43.994Z,99.99
2018-12-06T12:18:43.993Z,99.99
2018-12-06T12:20:05.518Z,99.99
2018-12-06T12:20:43.991Z,99.99
2018-12-06T12:21:43.964Z,99.99
2018-12-06T12:22:43.958Z,99.99
2018-12-06T12:23:43.952Z,99.99
2018-12-06T12:24:43.948Z,99.99
2018-12-06T12:26:04.951Z,99.99
2018-12-06T12:26:43.939Z,99.99
2018-12-06T12:27:43.932Z,99.99
2018-12-06T12:28:43.931Z,99.99
2018-12-06T12:29:43.929Z,99.99
2018-12-06T12:30:43.919Z,99.99
2018-12-06T12:32:04.916Z,99.99
2018-12-06T12:32:43.907Z,99.99
2018-12-06T12:33:43.898Z,99.99
2018-12-06T12:34:43.895Z,99.99
2018-12-06T12:35:43.883Z,99.99
2018-12-06T12:36:43.881Z,99.99
2018-12-06T12:38:04.890Z,99.99
2018-12-06T12:38:43.871Z,99.99
2018-12-06T12:39:43.864Z,99.99
2018-12-06T12:40:43.858Z,99.99
2018-12-06T12:41:43.850Z,99.99
2018-12-06T12:42:43.849Z,99.99
2018-12-06T12:44:04.846Z,99.99
2018-12-06T12:44:45.178Z,99.99
2018-12-06T12:45:45.330Z,99.99
2018-12-06T12:46:43.825Z,99.99
2018-12-06T12:47:43.818Z,99.99
2018-12-06T12:48:43.816Z,99.99
2018-12-06T12:50:04.815Z,99.99
2018-12-06T12:50:43.805Z,99.99
2018-12-06T12:51:43.803Z,99.99
2018-12-06T12:52:43.788Z,99.99
2018-12-06T12:53:43.780Z,99.99
2018-12-06T12:54:43.776Z,99.99
2018-12-06T12:56:04.778Z,99.99
2018-12-06T12:56:43.764Z,99.99
2018-12-06T12:57:43.787Z,99.99
2018-12-06T12:58:43.757Z,99.99